.
WxDataArchive / Data Records for 2010-02-16
2010-02-15 February 2010 2010-02-17

Data Records for Tuesday, 16 February 2010

Time	Temp	Chill	HIndex	Humid	Dewpt	 Wind 	HiWind	WindDir	Rain 	Barom 
-----	----	-----	------	-----	-----	------	------	-------	-----	----- 
00:00	24.1	24.1	24.1	81	19.1	2	5	292	0.00	29.772 
00:05	23.9	23.9	23.9	82	19.2	3	7	248	0.00	29.772 
00:10	23.8	23.8	23.8	83	19.4	2	6	248	0.00	29.772 
00:15	23.8	23.8	23.8	84	19.7	3	7	248	0.00	29.769 
00:20	23.6	23.6	23.6	84	19.5	3	9	248	0.00	29.769 
00:25	23.6	23.6	23.6	85	19.8	2	5	270	0.00	29.769 
00:30	23.6	23.6	23.6	85	19.8	2	4	292	0.00	29.769 
00:35	23.6	23.6	23.6	85	19.8	2	5	248	0.00	29.769 
00:40	23.6	23.6	23.6	86	20.0	2	5	248	0.00	29.769 
00:45	23.6	23.6	23.6	86	20.0	2	5	248	0.00	29.768 
00:50	23.6	23.6	23.6	86	20.0	2	5	270	0.00	29.768 
00:55	23.6	23.6	23.6	86	20.0	2	5	270	0.00	29.768 
01:00	23.6	23.6	23.6	86	20.0	2	6	270	0.00	29.767 
01:05	23.6	23.6	23.6	86	20.0	2	6	248	0.00	29.767 
01:10	23.6	23.6	23.6	86	20.0	2	6	248	0.00	29.767 
01:15	23.6	23.6	23.6	85	19.8	3	7	270	0.00	29.765 
01:20	23.5	23.5	23.5	85	19.7	3	10	248	0.00	29.765 
01:25	23.5	23.5	23.5	85	19.7	3	7	248	0.00	29.765 
01:30	23.3	23.3	23.3	85	19.5	2	6	248	0.00	29.764 
01:35	23.2	23.2	23.2	84	19.1	3	8	248	0.00	29.764 
01:40	23.2	23.2	23.2	84	19.1	2	5	270	0.00	29.764 
01:45	23.2	23.2	23.2	84	19.1	3	9	270	0.00	29.759 
01:50	23.0	23.0	23.0	84	18.9	2	4	270	0.00	29.759 
01:55	22.9	22.9	22.9	84	18.8	2	6	248	0.00	29.759 
02:00	22.9	22.9	22.9	84	18.8	3	6	248	0.00	29.759 
02:05	22.9	22.9	22.9	84	18.8	2	6	248	0.00	29.759 
02:10	22.7	22.7	22.7	84	18.6	2	4	270	0.00	29.759 
02:15	22.9	22.9	22.9	85	19.1	2	4	270	0.00	29.760 
02:20	22.9	22.9	22.9	85	19.1	2	7	270	0.00	29.760 
02:25	22.9	22.9	22.9	85	19.1	2	6	270	0.00	29.760 
02:30	22.9	22.9	22.9	85	19.1	3	5	270	0.00	29.758 
02:35	23.0	23.0	23.0	85	19.2	2	6	270	0.00	29.758 
02:40	23.0	23.0	23.0	85	19.2	2	4	248	0.00	29.758 
02:45	23.0	23.0	23.0	85	19.2	2	4	248	0.00	29.758 
02:50	23.0	23.0	23.0	85	19.2	2	5	248	0.00	29.758 
02:55	23.2	23.2	23.2	85	19.4	2	5	248	0.00	29.758 
03:00	23.2	23.2	23.2	85	19.4	1	3	248	0.00	29.754 
03:05	23.2	23.2	23.2	85	19.4	2	5	248	0.00	29.754 
03:10	23.2	23.2	23.2	86	19.6	2	5	248	0.00	29.754 
03:15	23.3	23.3	23.3	86	19.7	3	6	248	0.00	29.750 
03:20	23.3	23.3	23.3	86	19.7	2	7	248	0.00	29.750 
03:25	23.3	23.3	23.3	86	19.7	2	6	270	0.00	29.750 
03:30	23.3	23.3	23.3	86	19.7	2	5	248	0.00	29.747 
03:35	23.3	23.3	23.3	86	19.7	2	6	248	0.00	29.747 
03:40	23.5	23.5	23.5	86	19.9	2	6	248	0.00	29.747 
03:45	23.5	23.5	23.5	86	19.9	2	6	248	0.00	29.738 
03:50	23.5	23.5	23.5	87	20.2	2	6	248	0.00	29.738 
03:55	23.5	23.5	23.5	87	20.2	2	5	248	0.00	29.738 
04:00	23.6	23.6	23.6	87	20.3	3	7	248	0.00	29.738 
04:05	23.6	23.6	23.6	87	20.3	2	5	248	0.00	29.738 
04:10	23.6	23.6	23.6	87	20.3	2	4	248	0.00	29.738 
04:15	23.6	23.6	23.6	88	20.6	2	4	248	0.00	29.737 
04:20	23.8	23.8	23.8	88	20.8	2	6	248	0.00	29.737 
04:25	23.9	23.9	23.9	88	20.9	3	5	248	0.00	29.737 
04:30	23.9	23.9	23.9	88	20.9	2	7	270	0.00	29.738 
04:35	24.1	24.1	24.1	88	21.1	2	7	270	0.00	29.738 
04:40	24.1	24.1	24.1	88	21.1	3	7	248	0.00	29.738 
04:45	24.1	24.1	24.1	88	21.1	1	4	248	0.00	29.742 
04:50	24.1	24.1	24.1	88	21.1	1	3	225	0.00	29.742 
04:55	24.1	24.1	24.1	89	21.3	2	6	248	0.00	29.742 
05:00	24.2	24.2	24.2	89	21.4	2	4	248	0.00	29.738 
05:05	24.2	24.2	24.2	89	21.4	2	5	248	0.00	29.738 
05:10	24.2	24.2	24.2	89	21.4	2	5	248	0.00	29.738 
05:15	24.4	24.4	24.4	89	21.6	2	6	248	0.00	29.737 
05:20	24.4	24.4	24.4	89	21.6	2	5	248	0.00	29.737 
05:25	24.4	24.4	24.4	89	21.6	2	4	248	0.00	29.737 
05:30	24.5	24.5	24.5	89	21.7	1	4	248	0.00	29.742 
05:35	24.7	24.7	24.7	89	21.9	2	6	248	0.00	29.742 
05:40	24.7	24.7	24.7	89	21.9	2	4	270	0.00	29.742 
05:45	24.8	24.8	24.8	89	22.0	1	3	292	0.00	29.739 
05:50	25.0	25.0	25.0	89	22.2	1	5	248	0.00	29.739 
05:55	25.1	25.1	25.1	90	22.6	1	3	248	0.00	29.739 
06:00	25.3	25.3	25.3	90	22.8	2	4	248	0.00	29.738 
06:05	25.3	25.3	25.3	90	22.8	1	4	292	0.00	29.738 
06:10	25.4	25.4	25.4	90	22.9	1	3	292	0.00	29.738 
06:15	25.4	25.4	25.4	90	22.9	1	3	248	0.00	29.738 
06:20	25.6	25.6	25.6	90	23.1	1	5	248	0.00	29.738 
06:25	25.7	25.7	25.7	90	23.2	2	5	270	0.00	29.738 
06:30	25.7	25.7	25.7	90	23.2	2	4	270	0.00	29.735 
06:35	26.0	26.0	26.0	90	23.5	2	4	270	0.00	29.735 
06:40	26.0	26.0	26.0	90	23.5	2	4	270	0.00	29.735 
06:45	26.1	26.1	26.1	90	23.6	2	4	270	0.00	29.735 
06:50	26.3	26.3	26.3	90	23.8	2	3	270	0.00	29.735 
06:55	26.3	26.3	26.3	90	23.8	2	5	225	0.00	29.735 
07:00	26.4	26.4	26.4	90	23.9	2	5	270	0.00	29.742 
07:05	26.4	26.4	26.4	90	23.9	3	7	248	0.00	29.742 
07:10	26.4	26.4	26.4	90	23.9	3	7	270	0.00	29.742 
07:15	26.3	26.3	26.3	90	23.8	3	7	270	0.00	29.742 
07:20	26.3	26.3	26.3	90	23.8	3	8	248	0.00	29.742 
07:25	26.3	26.3	26.3	90	23.8	2	9	270	0.00	29.742 
07:30	26.3	26.3	26.3	90	23.8	3	7	270	0.00	29.745 
07:35	26.3	26.3	26.3	89	23.5	3	11	248	0.00	29.745 
07:40	26.1	26.1	26.1	89	23.3	3	9	248	0.00	29.745 
07:45	26.1	26.1	26.1	89	23.3	3	7	248	0.00	29.745 
07:50	26.1	26.1	26.1	89	23.3	3	9	248	0.00	29.745 
07:55	26.1	26.1	26.1	89	23.3	3	6	248	0.00	29.745 
08:00	26.1	26.1	26.1	89	23.3	2	6	270	0.00	29.748 
08:05	26.1	26.1	26.1	89	23.3	3	5	270	0.00	29.748 
08:10	26.1	26.1	26.1	89	23.3	3	7	248	0.00	29.748 
08:15	26.1	26.1	26.1	89	23.3	2	5	248	0.00	29.752 
08:20	26.1	26.1	26.1	89	23.3	2	4	270	0.00	29.752 
08:25	26.3	26.3	26.3	89	23.5	3	7	270	0.00	29.752 
08:30	26.1	26.1	26.1	89	23.3	3	9	270	0.00	29.753 
08:35	26.3	26.3	26.3	89	23.5	3	11	270	0.00	29.753 
08:40	26.1	26.1	26.1	89	23.3	3	6	270	0.00	29.753 
08:45	26.3	26.3	26.3	89	23.5	2	6	270	0.00	29.754 
08:50	26.3	26.3	26.3	89	23.5	3	9	248	0.00	29.754 
08:55	26.1	21.3	26.1	89	23.3	4	10	270	0.00	29.754 
09:00	26.1	26.1	26.1	88	23.0	3	9	270	0.00	29.760 
09:05	26.1	26.1	26.1	88	23.0	3	9	270	0.00	29.760 
09:10	26.1	26.1	26.1	88	23.0	2	6	248	0.00	29.760 
09:15	26.3	26.3	26.3	88	23.2	3	9	248	0.00	29.763 
09:20	26.3	26.3	26.3	88	23.2	3	7	248	0.00	29.763 
09:25	26.3	26.3	26.3	88	23.2	3	9	248	0.00	29.763 
09:30	26.4	26.4	26.4	88	23.3	2	6	248	0.00	29.765 
09:35	26.4	26.4	26.4	88	23.3	2	5	248	0.00	29.765 
09:40	26.6	26.6	26.6	88	23.5	3	5	248	0.00	29.765 
09:45	26.6	26.6	26.6	88	23.5	3	7	270	0.00	29.764 
09:50	26.7	26.7	26.7	88	23.6	3	7	270	0.00	29.764 
09:55	27.0	27.0	27.0	88	23.9	3	5	248	0.00	29.764 
10:00	27.2	27.2	27.2	88	24.1	3	7	248	0.00	29.766 
10:05	27.2	22.5	27.2	87	23.9	4	9	270	0.00	29.766 
10:10	27.5	27.5	27.5	88	24.4	3	6	270	0.00	29.766 
10:15	27.5	27.5	27.5	87	24.1	3	6	248	0.00	29.767 
10:20	27.6	27.6	27.6	87	24.2	2	4	270	0.00	29.767 
10:25	27.5	27.5	27.5	87	24.1	3	7	270	0.00	29.767 
10:30	27.5	27.5	27.5	87	24.1	3	6	270	0.00	29.773 
10:35	27.5	27.5	27.5	87	24.1	3	6	225	0.00	29.773 
10:40	27.5	27.5	27.5	87	24.1	3	7	270	0.00	29.773 
10:45	27.6	27.6	27.6	87	24.2	3	5	270	0.00	29.776 
10:50	28.2	28.2	28.2	88	25.1	2	6	248	0.00	29.776 
10:55	28.4	28.4	28.4	87	25.0	3	5	270	0.00	29.776 
11:00	28.5	28.5	28.5	87	25.1	2	5	270	0.00	29.778 
11:05	28.7	28.7	28.7	87	25.3	2	4	248	0.00	29.778 
11:10	28.8	28.8	28.8	87	25.4	3	6	270	0.00	29.778 
11:15	29.1	29.1	29.1	88	26.0	2	4	270	0.00	29.781 
11:20	29.7	29.7	29.7	88	26.6	2	4	270	0.00	29.781 
11:25	30.0	30.0	30.0	87	26.6	2	7	270	0.00	29.781 
11:30	30.1	30.1	30.1	86	26.4	3	6	248	0.00	29.779 
11:35	30.1	30.1	30.1	86	26.4	2	4	248	0.00	29.779 
11:40	30.3	30.3	30.3	86	26.6	2	5	248	0.00	29.779 
11:45	30.1	30.1	30.1	85	26.1	2	4	270	0.00	29.780 
11:50	30.1	30.1	30.1	85	26.1	2	4	248	0.00	29.780 
11:55	30.1	30.1	30.1	85	26.1	2	5	270	0.00	29.780 
12:00	30.1	30.1	30.1	84	25.9	2	6	248	0.00	29.779 
12:05	30.0	30.0	30.0	84	25.8	2	6	248	0.00	29.779 
12:10	29.8	29.8	29.8	85	25.9	1	3	225	0.00	29.779 
12:15	29.7	29.7	29.7	85	25.8	1	5	248	0.00	29.779 
12:20	29.5	29.5	29.5	86	25.8	2	3	248	0.00	29.779 
12:25	29.5	29.5	29.5	86	25.8	1	4	248	0.00	29.779 
12:30	29.5	29.5	29.5	87	26.1	1	3	248	0.00	29.777 
12:35	29.7	29.7	29.7	87	26.3	1	4	248	0.00	29.777 
12:40	29.7	29.7	29.7	87	26.3	1	4	270	0.00	29.777 
12:45	29.8	29.8	29.8	87	26.4	2	5	248	0.00	29.773 
12:50	29.8	29.8	29.8	87	26.4	1	5	248	0.00	29.773 
12:55	30.0	30.0	30.0	87	26.6	2	4	248	0.00	29.773 
13:00	30.0	30.0	30.0	87	26.6	2	5	248	0.00	29.768 
13:05	30.1	30.1	30.1	86	26.4	2	4	270	0.00	29.768 
13:10	30.3	30.3	30.3	86	26.6	2	4	248	0.00	29.768 
13:15	30.4	30.4	30.4	86	26.7	2	6	270	0.00	29.767 
13:20	30.7	30.7	30.7	86	27.0	2	4	248	0.00	29.767 
13:25	30.9	30.9	30.9	85	26.9	2	6	270	0.00	29.767 
13:30	30.9	30.9	30.9	85	26.9	2	4	270	0.00	29.764 
13:35	30.9	30.9	30.9	86	27.2	2	7	248	0.00	29.764 
13:40	30.9	30.9	30.9	86	27.2	3	10	270	0.00	29.764 
13:45	30.7	30.7	30.7	86	27.0	2	4	248	0.00	29.764 
13:50	30.7	30.7	30.7	87	27.3	2	4	248	0.00	29.764 
13:55	30.6	30.6	30.6	87	27.2	2	4	270	0.00	29.764 
14:00	30.6	30.6	30.6	87	27.2	2	5	248	0.00	29.763 
14:05	30.6	30.6	30.6	88	27.5	2	7	270	0.00	29.763 
14:10	30.6	30.6	30.6	88	27.5	2	5	248	0.00	29.763 
14:15	30.6	30.6	30.6	88	27.5	1	3	270	0.00	29.759 
14:20	30.7	30.7	30.7	88	27.6	2	4	225	0.00	29.759 
14:25	30.7	30.7	30.7	88	27.6	2	4	270	0.00	29.759 
14:30	30.7	30.7	30.7	88	27.6	1	6	292	0.00	29.756 
14:35	30.6	30.6	30.6	88	27.5	1	5	225	0.00	29.756 
14:40	30.1	30.1	30.1	88	27.0	2	5	248	0.00	29.756 
14:45	30.0	30.0	30.0	89	27.2	2	9	248	0.00	29.761 
14:50	29.8	29.8	29.8	88	26.7	2	5	248	0.00	29.761 
14:55	29.7	29.7	29.7	88	26.6	2	4	248	0.00	29.761 
15:00	29.7	29.7	29.7	89	26.9	2	4	248	0.00	29.764 
15:05	29.7	29.7	29.7	89	26.9	2	4	248	0.00	29.764 
15:10	29.7	29.7	29.7	89	26.9	2	5	270	0.00	29.764 
15:15	29.8	29.8	29.8	89	27.0	2	5	248	0.00	29.764 
15:20	30.0	30.0	30.0	89	27.2	3	5	248	0.00	29.764 
15:25	30.1	30.1	30.1	88	27.0	3	5	270	0.00	29.764 
15:30	30.3	30.3	30.3	88	27.2	3	6	270	0.00	29.769 
15:35	30.6	30.6	30.6	87	27.2	2	4	270	0.00	29.769 
15:40	30.6	30.6	30.6	86	26.9	3	10	270	0.00	29.769 
15:45	30.4	26.2	30.4	84	26.2	4	8	270	0.00	29.779 
15:50	30.3	25.1	30.3	83	25.8	5	7	270	0.00	29.779 
15:55	30.4	30.4	30.4	83	25.9	3	6	270	0.00	29.779 
16:00	30.6	30.6	30.6	83	26.1	3	8	270	0.00	29.781 
16:05	30.6	30.6	30.6	82	25.8	3	6	270	0.00	29.781 
16:10	30.6	26.5	30.6	81	25.5	4	7	270	0.00	29.781 
16:15	30.3	26.1	30.3	81	25.2	4	9	270	0.00	29.784 
16:20	30.3	26.1	30.3	81	25.2	4	6	270	0.00	29.784 
16:25	30.3	30.3	30.3	81	25.2	3	5	270	0.00	29.784 
16:30	30.3	30.3	30.3	81	25.2	3	10	270	0.00	29.789 
16:35	30.4	30.4	30.4	81	25.3	3	7	248	0.00	29.789 
16:40	30.4	30.4	30.4	80	25.0	3	6	270	0.00	29.789 
16:45	30.4	30.4	30.4	80	25.0	2	5	270	0.00	29.792 
16:50	30.4	30.4	30.4	79	24.7	3	9	270	0.00	29.792 
16:55	30.4	30.4	30.4	79	24.7	3	6	270	0.00	29.792 
17:00	30.3	30.3	30.3	78	24.3	3	6	270	0.00	29.795 
17:05	30.1	30.1	30.1	78	24.1	3	7	270	0.00	29.795 
17:10	30.1	30.1	30.1	78	24.1	2	5	270	0.00	29.795 
17:15	30.1	30.1	30.1	77	23.8	3	7	270	0.00	29.797 
17:20	30.1	30.1	30.1	77	23.8	3	5	270	0.00	29.797 
17:25	30.0	30.0	30.0	77	23.7	3	8	270	0.00	29.797 
17:30	30.0	30.0	30.0	78	24.0	3	5	270	0.00	29.802 
17:35	29.8	29.8	29.8	78	23.8	3	6	270	0.00	29.802 
17:40	29.7	29.7	29.7	78	23.7	3	6	270	0.00	29.802 
17:45	29.7	29.7	29.7	79	24.0	3	6	270	0.00	29.804 
17:50	29.5	29.5	29.5	79	23.8	3	6	270	0.00	29.804 
17:55	29.4	29.4	29.4	79	23.7	3	6	270	0.00	29.804 
18:00	29.4	29.4	29.4	79	23.7	3	6	270	0.00	29.811 
18:05	29.1	29.1	29.1	80	23.7	3	6	270	0.00	29.811 
18:10	29.1	29.1	29.1	81	24.0	3	6	270	0.00	29.811 
18:15	29.0	29.0	29.0	81	23.9	2	4	270	0.00	29.814 
18:20	28.8	28.8	28.8	82	24.0	2	5	270	0.00	29.814 
18:25	28.7	28.7	28.7	82	23.9	2	5	270	0.00	29.814 
18:30	28.7	28.7	28.7	82	23.9	2	7	292	0.00	29.818 
18:35	28.5	28.5	28.5	83	24.0	2	4	270	0.00	29.818 
18:40	28.5	28.5	28.5	82	23.7	2	5	270	0.00	29.818 
18:45	28.5	28.5	28.5	82	23.7	3	6	270	0.00	29.824 
18:50	28.4	28.4	28.4	82	23.6	2	4	248	0.00	29.824 
18:55	28.4	28.4	28.4	83	23.9	2	5	270	0.00	29.824 
19:00	28.4	28.4	28.4	83	23.9	2	3	270	0.00	29.827 
19:05	28.2	28.2	28.2	83	23.7	2	5	270	0.00	29.827 
19:10	28.2	28.2	28.2	84	24.0	2	4	248	0.00	29.827 
19:15	28.2	28.2	28.2	84	24.0	2	5	270	0.00	29.830 
19:20	28.2	28.2	28.2	84	24.0	2	4	270	0.00	29.830 
19:25	28.1	28.1	28.1	85	24.2	2	4	270	0.00	29.830 
19:30	27.9	27.9	27.9	85	24.0	1	3	270	0.00	29.836 
19:35	27.9	27.9	27.9	86	24.3	1	3	270	0.00	29.836 
19:40	27.8	27.8	27.8	87	24.4	1	6	270	0.00	29.836 
19:45	27.8	27.8	27.8	87	24.4	2	4	248	0.00	29.841 
19:50	27.6	27.6	27.6	88	24.5	1	4	315	0.00	29.841 
19:55	27.6	27.6	27.6	88	24.5	2	5	270	0.00	29.841 
20:00	27.6	27.6	27.6	88	24.5	1	4	270	0.00	29.841 
20:05	27.5	27.5	27.5	88	24.4	1	3	248	0.00	29.841 
20:10	27.5	27.5	27.5	89	24.7	1	3	248	0.00	29.841 
20:15	27.3	27.3	27.3	89	24.5	2	4	248	0.00	29.842 
20:20	27.3	27.3	27.3	89	24.5	2	4	270	0.00	29.842 
20:25	27.3	27.3	27.3	89	24.5	2	4	270	0.00	29.842 
20:30	27.3	27.3	27.3	88	24.2	2	4	270	0.00	29.844 
20:35	27.3	27.3	27.3	88	24.2	3	5	270	0.00	29.844 
20:40	27.5	27.5	27.5	88	24.4	3	5	270	0.00	29.844 
20:45	27.5	27.5	27.5	88	24.4	2	4	270	0.00	29.843 
20:50	27.5	27.5	27.5	87	24.1	2	5	248	0.00	29.843 
20:55	27.5	27.5	27.5	87	24.1	2	4	248	0.00	29.843 
21:00	27.5	27.5	27.5	87	24.1	1	2	248	0.00	29.843 
21:05	27.3	27.3	27.3	87	24.0	1	3	248	0.00	29.843 
21:10	27.3	27.3	27.3	87	24.0	2	3	248	0.00	29.843 
21:15	27.3	27.3	27.3	87	24.0	1	3	248	0.00	29.847 
21:20	27.3	27.3	27.3	87	24.0	2	5	248	0.00	29.847 
21:25	27.3	27.3	27.3	87	24.0	2	5	270	0.00	29.847 
21:30	27.3	27.3	27.3	87	24.0	2	3	270	0.00	29.851 
21:35	27.3	27.3	27.3	87	24.0	2	4	270	0.00	29.851 
21:40	27.3	27.3	27.3	87	24.0	2	4	270	0.00	29.851 
21:45	27.3	27.3	27.3	87	24.0	2	3	292	0.00	29.853 
21:50	27.3	27.3	27.3	87	24.0	2	5	270	0.00	29.853 
21:55	27.5	27.5	27.5	87	24.1	2	5	270	0.00	29.853 
22:00	27.5	27.5	27.5	86	23.9	2	5	292	0.00	29.858 
22:05	27.3	27.3	27.3	86	23.7	2	5	270	0.00	29.858 
22:10	27.2	27.2	27.2	86	23.6	2	4	270	0.00	29.858 
22:15	27.0	27.0	27.0	86	23.4	2	4	270	0.00	29.857 
22:20	27.2	27.2	27.2	86	23.6	2	5	270	0.00	29.857 
22:25	27.2	27.2	27.2	86	23.6	1	3	270	0.00	29.857 
22:30	27.0	27.0	27.0	87	23.7	1	3	248	0.00	29.857 
22:35	27.0	27.0	27.0	87	23.7	1	3	270	0.00	29.857 
22:40	27.0	27.0	27.0	88	23.9	1	3	248	0.00	29.857 
22:45	27.0	27.0	27.0	88	23.9	1	3	315	0.00	29.856 
22:50	27.0	27.0	27.0	88	23.9	2	4	270	0.00	29.856 
22:55	27.0	27.0	27.0	88	23.9	1	3	270	0.00	29.856 
23:00	27.0	27.0	27.0	88	23.9	1	3	270	0.00	29.855 
23:05	27.0	27.0	27.0	88	23.9	1	3	292	0.00	29.855 
23:10	27.0	27.0	27.0	88	23.9	2	3	248	0.00	29.855 
23:15	27.0	27.0	27.0	88	23.9	1	3	292	0.00	29.857 
23:20	27.0	27.0	27.0	88	23.9	1	3	292	0.00	29.857 
23:25	27.0	27.0	27.0	88	23.9	1	4	270	0.00	29.857 
23:30	27.0	27.0	27.0	87	23.7	1	3	270	0.00	29.857 
23:35	27.0	27.0	27.0	87	23.7	1	3	248	0.00	29.857 
23:40	27.2	27.2	27.2	87	23.9	2	4	270	0.00	29.857 
23:45	27.2	27.2	27.2	86	23.6	2	4	248	0.00	29.857 
23:50	27.2	27.2	27.2	86	23.6	2	4	270	0.00	29.857 
23:55	27.3	27.3	27.3	86	23.7	1	4	270	0.00	29.857 

CoCoRaHS
IN-AL-39
A2 Web Hosting
Creative Commons License
GoDaddy
search engine by freefind advanced

loaded 2018-11-18 11:53:50 • last modified 2010-11-18 10:43:29
Privacy PolicyDisclaimer
• wx.awcolley.com is powered by PmWiki v.2002016 •
• all content (unless otherwise noted) © 2018 A W Colley